METAR Data
IDs: Format: Raw Decoded Include TAF

Data at: 0644 UTC 03 Aug 2021

ZYTX 030630Z 29002MPS 250V360 9999 SCT033 27/22 Q1006 NOSIG